Time;durP1;ratioP1;P1;durP2;ratioP2;P2;SDS_P1;SDS_P2;PMS_P1;PMS_P2;Temp;Humidity;BMP_temperature;BMP_pressure;BME280_temperature;BME280_humidity;BME280_pressure;Samples;Min_cycle;Max_cycle;Signal;HPM_P1;HPM_P2
2023/11/20 00:02:07;;;;;;;8.05;2.20;;;;;;;7.89;99.44;97941.25;5080595;28;20035;-82
2023/11/20 00:04:33;;;;;;;7.43;2.35;;;;;;;7.87;100.00;97929.25;5076113;28;20367;-82
2023/11/20 00:06:58;;;;;;;6.75;2.42;;;;;;;7.89;100.00;97922.66;5082982;28;20102;-82
2023/11/20 00:09:23;;;;;;;11.10;2.72;;;;;;;7.84;99.98;97908.53;5077625;28;20044;-81
2023/11/20 00:11:49;;;;;;;10.07;3.05;;;;;;;7.94;100.00;97927.19;5080342;28;20060;-81
2023/11/20 00:14:14;;;;;;;5.88;2.15;;;;;;;7.81;100.00;97920.47;5067065;28;20400;-81
2023/11/20 00:16:40;;;;;;;4.50;1.70;;;;;;;7.86;100.00;97922.38;5082742;28;20115;-81
2023/11/20 00:19:06;;;;;;;6.57;1.90;;;;;;;7.90;100.00;97920.78;5068271;28;20489;-81
2023/11/20 00:21:32;;;;;;;5.07;1.60;;;;;;;7.76;100.00;97901.81;5053693;28;20040;-81
2023/11/20 00:23:58;;;;;;;2.78;1.65;;;;;;;7.84;100.00;97908.53;5084674;28;20423;-82
2023/11/20 00:26:23;;;;;;;4.05;2.15;;;;;;;7.89;100.00;97922.66;5070413;28;20078;-82
2023/11/20 00:28:49;;;;;;;4.07;1.73;;;;;;;7.90;100.00;97918.94;5070277;28;20119;-81
2023/11/20 00:31:17;;;;;;;3.78;1.80;;;;;;;7.87;100.00;97913.31;5080463;28;20032;-82
2023/11/20 00:33:43;;;;;;;1.92;1.38;;;;;;;7.91;100.00;97925.03;5076528;28;20040;-82
2023/11/20 00:36:09;;;;;;;5.88;2.35;;;;;;;7.86;100.00;97922.38;5085773;28;20035;-82
2023/11/20 00:38:35;;;;;;;1.83;1.48;;;;;;;7.85;100.00;97916.25;5078792;28;20036;-82
2023/11/20 00:41:01;;;;;;;7.22;2.50;;;;;;;7.89;100.00;97922.66;5076254;28;20024;-82
2023/11/20 00:43:26;;;;;;;6.03;2.85;;;;;;;7.89;100.00;97911.22;5065200;28;20094;-82
2023/11/20 00:45:51;;;;;;;3.55;1.67;;;;;;;7.89;100.00;97917.34;5071829;28;20131;-81
2023/11/20 00:48:17;;;;;;;7.53;2.22;;;;;;;7.90;100.00;97926.91;5064047;28;20040;-81
2023/11/20 00:50:42;;;;;;;7.43;1.70;;;;;;;7.94;100.00;97927.19;5077988;28;20488;-81
2023/11/20 00:53:07;;;;;;;7.82;2.30;;;;;;;7.90;100.00;97924.25;5066844;28;20052;-82
2023/11/20 00:55:33;;;;;;;6.78;2.10;;;;;;;7.93;100.00;97938.91;5079405;28;20451;-81
2023/11/20 00:57:58;;;;;;;9.00;2.58;;;;;;;7.96;100.00;97933.06;5077179;28;20089;-81
2023/11/20 01:00:24;;;;;;;6.40;2.30;;;;;;;7.94;100.00;97929.84;5078822;28;20023;-81
2023/11/20 01:02:50;;;;;;;7.55;1.98;;;;;;;7.94;100.00;97940.47;5052691;28;20035;-81
2023/11/20 01:05:16;;;;;;;6.70;1.60;;;;;;;7.92;100.00;97937.28;5083959;28;20024;-81
2023/11/20 01:07:41;;;;;;;9.63;2.17;;;;;;;7.94;100.00;97935.16;5077139;28;20048;-81
2023/11/20 01:10:07;;;;;;;7.72;2.50;;;;;;;7.96;100.00;97943.69;5050195;28;20035;-81
2023/11/20 01:12:33;;;;;;;14.07;2.53;;;;;;;7.91;100.00;97935.66;5080064;28;20032;-81
2023/11/20 01:14:58;;;;;;;7.30;2.28;;;;;;;7.95;100.00;97939.44;5079439;28;20028;-81
2023/11/20 01:17:24;;;;;;;8.85;2.13;;;;;;;8.01;100.00;97941.88;5075503;28;20020;-81
2023/11/20 01:19:49;;;;;;;8.60;2.90;;;;;;;8.05;100.00;97952.78;5068823;28;20028;-81
2023/11/20 01:22:14;;;;;;;8.85;2.00;;;;;;;7.96;100.00;97951.66;5063667;28;20032;-82
2023/11/20 01:24:40;;;;;;;10.48;2.63;;;;;;;8.04;100.00;97957.31;5063687;28;20043;-81
2023/11/20 01:27:06;;;;;;;8.10;2.03;;;;;;;7.99;100.00;97944.00;5079045;28;20043;-81
2023/11/20 01:29:32;;;;;;;10.63;2.78;;;;;;;7.97;100.00;97951.41;5081373;28;20693;-81
2023/11/20 01:31:58;;;;;;;7.35;1.92;;;;;;;7.98;100.00;97946.88;5078131;28;20032;-81
2023/11/20 01:34:23;;;;;;;11.07;2.30;;;;;;;8.03;99.96;97945.09;5080552;28;20043;-81
2023/11/20 01:36:49;;;;;;;14.63;2.22;;;;;;;8.01;100.00;97941.88;5075609;28;20040;-81
2023/11/20 01:39:14;;;;;;;5.65;2.95;;;;;;;8.13;99.62;97960.28;5065834;28;20081;-81
2023/11/20 01:41:39;;;;;;;11.07;2.38;;;;;;;8.03;99.64;97949.59;5074173;28;20024;-80
2023/11/20 01:44:06;;;;;;;5.20;1.85;;;;;;;7.95;100.00;97942.09;5079814;28;20128;-81
2023/11/20 01:46:32;;;;;;;6.75;2.30;;;;;;;8.13;99.98;97952.31;5067288;28;20065;-81
2023/11/20 01:48:59;;;;;;;3.42;1.83;;;;;;;8.09;99.78;97961.84;5082123;28;20559;-81
2023/11/20 01:51:27;;;;;;;11.07;1.80;;;;;;;8.07;99.46;97962.13;5080508;28;20476;-81
2023/11/20 01:53:54;;;;;;;2.58;1.50;;;;;;;8.03;99.64;97944.28;5077613;28;20059;-81
2023/11/20 01:56:20;;;;;;;6.05;1.70;;;;;;;8.07;100.00;97961.31;5076336;28;20040;-81
2023/11/20 01:58:47;;;;;;;5.18;2.00;;;;;;;8.12;100.00;97961.38;5079380;28;20032;-81
2023/11/20 02:01:13;;;;;;;3.80;1.65;;;;;;;8.10;100.00;97966.13;5082060;28;20028;-81
2023/11/20 02:03:38;;;;;;;7.53;1.73;;;;;;;8.08;100.00;97963.72;5080407;28;20047;-81
2023/11/20 02:06:04;;;;;;;3.70;1.52;;;;;;;8.03;100.00;97949.59;5086701;28;20043;-82
2023/11/20 02:08:30;;;;;;;5.32;1.50;;;;;;;8.14;100.00;97956.59;5073193;28;20024;-81
2023/11/20 02:11:00;;;;;;;2.78;2.15;;;;;;;8.07;99.89;97953.34;5085995;28;20478;-81
2023/11/20 02:13:27;;;;;;;2.28;0.95;;;;;;;8.10;100.00;97952.84;5095469;28;20028;-81
2023/11/20 02:15:53;;;;;;;4.40;1.75;;;;;;;8.09;100.00;97956.53;5072774;28;20040;-81
2023/11/20 02:18:33;;;;;;;4.95;1.48;;;;;;;8.04;100.00;97948.53;5079833;28;20120;-81
2023/11/20 02:20:59;;;;;;;2.90;1.40;;;;;;;8.13;99.90;97961.09;5080164;28;20399;-81
2023/11/20 02:23:25;;;;;;;1.60;1.13;;;;;;;8.17;99.69;97945.44;5089623;28;20033;-81
2023/11/20 02:26:07;;;;;;;4.13;1.38;;;;;;;8.06;99.91;97952.53;5084910;28;20130;-81
2023/11/20 02:28:53;;;;;;;2.50;1.35;;;;;;;8.10;100.00;97945.66;5089274;28;20119;-81
2023/11/20 02:31:19;;;;;;;2.43;1.47;;;;;;;8.14;99.83;97943.31;5080012;28;20407;-81
2023/11/20 02:33:44;;;;;;;1.73;1.60;;;;;;;8.12;99.94;97932.94;5086772;28;20277;-81
2023/11/20 02:36:11;;;;;;;3.53;1.33;;;;;;;8.19;99.45;97930.06;5069044;28;20028;-81
2023/11/20 02:38:40;;;;;;;8.02;0.98;;;;;;;8.14;100.00;97932.69;5072517;28;20162;-81
2023/11/20 02:41:05;;;;;;;1.75;1.15;;;;;;;8.12;100.00;97938.25;5080159;28;20514;-81
2023/11/20 02:43:35;;;;;;;2.35;1.40;;;;;;;8.15;100.00;97947.53;5056268;28;20059;-82
2023/11/20 02:46:01;;;;;;;3.20;1.38;;;;;;;8.20;99.67;97944.94;5083263;28;20028;-81
2023/11/20 02:48:26;;;;;;;2.50;0.98;;;;;;;8.08;100.00;97942.44;5062624;28;22143;-81
2023/11/20 02:50:53;;;;;;;3.22;1.83;;;;;;;8.12;100.00;97938.25;5068690;28;20048;-82
2023/11/20 02:53:19;;;;;;;2.03;1.40;;;;;;;8.16;100.00;97936.69;5071439;28;20028;-81
2023/11/20 02:55:44;;;;;;;3.80;1.25;;;;;;;8.15;100.00;97931.59;5055381;28;20062;-81
2023/11/20 02:58:09;;;;;;;3.40;1.40;;;;;;;8.18;99.92;97939.88;5084506;28;20062;-81
2023/11/20 03:00:35;;;;;;;2.90;0.90;;;;;;;8.24;100.00;97941.50;5081053;28;20055;-81
2023/11/20 03:03:01;;;;;;;4.22;0.90;;;;;;;8.20;99.63;97929.00;5083045;28;20036;-82
2023/11/20 03:05:26;;;;;;;2.47;1.20;;;;;;;8.22;100.00;97932.19;5063655;28;20032;-82
2023/11/20 03:07:51;;;;;;;0.68;0.68;;;;;;;8.22;99.37;97925.03;5073288;28;20032;-81
2023/11/20 03:10:18;;;;;;;1.35;0.70;;;;;;;8.21;99.12;97939.34;5072661;28;20487;-81
2023/11/20 03:12:44;;;;;;;3.22;0.90;;;;;;;8.17;100.00;97924.97;5055187;28;20035;-82
2023/11/20 03:15:09;;;;;;;2.70;0.90;;;;;;;8.15;99.71;97905.84;5094971;28;20039;-82
2023/11/20 03:17:35;;;;;;;2.30;1.10;;;;;;;8.10;99.71;97919.06;5070478;28;20543;-81
2023/11/20 03:20:00;;;;;;;2.85;0.90;;;;;;;8.14;99.88;97917.53;5071911;28;20031;-81
2023/11/20 03:22:25;;;;;;;1.58;1.15;;;;;;;8.11;99.95;97919.88;5085084;28;20036;-81
2023/11/20 03:24:52;;;;;;;2.42;0.90;;;;;;;8.05;100.00;97920.91;5087264;28;20483;-81
2023/11/20 03:27:18;;;;;;;1.40;1.20;;;;;;;8.07;100.00;97934.75;5061411;28;20025;-82
2023/11/20 03:29:43;;;;;;;2.30;0.70;;;;;;;8.06;100.00;97928.63;5082244;28;20036;-81
2023/11/20 03:32:08;;;;;;;1.00;0.85;;;;;;;8.11;100.00;97925.19;5066875;28;20107;-81
2023/11/20 03:34:35;;;;;;;1.25;0.90;;;;;;;8.12;100.00;97922.31;5077703;28;20024;-81
2023/11/20 03:37:01;;;;;;;1.33;0.82;;;;;;;8.07;100.00;97918.78;5084088;28;20040;-81
2023/11/20 03:39:27;;;;;;;3.00;1.15;;;;;;;8.16;100.00;97915.41;5077747;28;20086;-81
2023/11/20 03:41:53;;;;;;;1.92;0.95;;;;;;;8.18;100.00;97915.16;5085302;28;20123;-82
2023/11/20 03:44:18;;;;;;;1.90;1.05;;;;;;;8.16;100.00;97922.59;5075767;28;20037;-81
2023/11/20 03:46:44;;;;;;;1.02;0.88;;;;;;;8.11;100.00;97917.22;5057180;28;20488;-82
2023/11/20 03:49:09;;;;;;;1.27;0.88;;;;;;;8.14;100.00;97920.19;5052555;28;20219;-81
2023/11/20 03:51:34;;;;;;;1.58;1.00;;;;;;;8.18;99.76;97923.94;5045016;28;20121;-81
2023/11/20 03:54:00;;;;;;;2.90;1.30;;;;;;;8.09;100.00;97916.69;5074117;28;20070;-81
2023/11/20 03:56:25;;;;;;;2.00;1.50;;;;;;;8.20;99.98;97907.72;5072189;28;20035;-81
2023/11/20 03:58:50;;;;;;;1.92;1.00;;;;;;;8.19;100.00;97911.47;5054381;28;20395;-81
2023/11/20 04:01:16;;;;;;;1.35;1.10;;;;;;;7.93;99.94;97873.25;5086064;28;20031;-81
2023/11/20 04:03:41;;;;;;;1.48;1.10;;;;;;;8.11;100.00;97907.41;5063786;28;20131;-81
2023/11/20 04:06:07;;;;;;;6.00;1.48;;;;;;;8.14;99.96;97927.34;5064113;28;20408;-81
2023/11/20 04:08:32;;;;;;;1.95;1.05;;;;;;;8.14;99.78;97912.22;5077901;28;20044;-80
2023/11/20 04:10:57;;;;;;;1.42;1.20;;;;;;;8.12;100.00;97917.00;5057695;28;20040;-80
2023/11/20 04:13:23;;;;;;;1.33;1.20;;;;;;;8.14;99.56;97928.16;5064417;28;20030;-80
2023/11/20 04:15:48;;;;;;;2.17;1.40;;;;;;;8.11;100.00;97919.88;5065273;28;20040;-80
2023/11/20 04:18:13;;;;;;;2.13;1.50;;;;;;;8.23;100.00;97941.78;5070164;28;20468;-81
2023/11/20 04:20:39;;;;;;;2.22;1.50;;;;;;;8.12;100.00;97937.44;5064481;28;20396;-81
2023/11/20 04:23:04;;;;;;;1.30;1.20;;;;;;;8.19;100.00;97946.00;5066772;28;20041;-80
2023/11/20 04:25:29;;;;;;;3.53;1.60;;;;;;;8.13;100.00;97939.84;5082938;28;20095;-81
2023/11/20 04:27:55;;;;;;;3.60;1.90;;;;;;;8.11;100.00;97936.63;5064772;28;20040;-81
2023/11/20 04:30:22;;;;;;;3.65;2.35;;;;;;;8.08;100.00;97939.00;5053893;28;20024;-81
2023/11/20 04:32:47;;;;;;;3.90;2.05;;;;;;;8.20;100.00;97943.09;5073520;28;20456;-81
2023/11/20 04:35:12;;;;;;;3.30;1.75;;;;;;;8.21;100.00;97946.56;5077843;28;20044;-80
2023/11/20 04:37:38;;;;;;;4.30;1.60;;;;;;;8.16;100.00;97934.03;5075661;28;20119;-81
2023/11/20 04:40:04;;;;;;;3.00;1.83;;;;;;;8.08;100.00;97933.69;5079703;28;20028;-80
2023/11/20 04:42:29;;;;;;;3.83;2.10;;;;;;;8.17;100.00;97934.81;5070771;28;20024;-82
2023/11/20 04:44:55;;;;;;;2.72;2.53;;;;;;;8.21;100.00;97930.59;5082854;28;20077;-80
2023/11/20 04:47:20;;;;;;;4.93;2.30;;;;;;;8.15;100.00;97928.94;5079009;28;20024;-80
2023/11/20 04:49:45;;;;;;;2.08;1.67;;;;;;;8.22;99.61;97934.84;5067057;28;20119;-80
2023/11/20 04:52:11;;;;;;;1.42;1.15;;;;;;;8.16;99.61;97919.94;5084302;28;20028;-81
2023/11/20 04:54:36;;;;;;;2.10;1.52;;;;;;;8.31;99.61;97928.03;5066297;28;20036;-81
2023/11/20 04:57:01;;;;;;;1.73;1.50;;;;;;;8.29;99.16;97925.66;5083517;28;20442;-81
2023/11/20 04:59:27;;;;;;;3.58;2.03;;;;;;;8.18;98.50;97918.63;5063166;28;20510;-80
2023/11/20 05:01:53;;;;;;;1.95;1.73;;;;;;;8.22;99.37;97922.38;5066412;28;20115;-81
2023/11/20 05:04:21;;;;;;;3.58;1.85;;;;;;;8.17;99.94;97929.50;5083211;28;20024;-81
2023/11/20 05:06:46;;;;;;;2.78;1.55;;;;;;;8.20;99.85;97932.47;5080615;28;20028;-81
2023/11/20 05:09:12;;;;;;;2.00;1.52;;;;;;;8.21;99.42;97923.41;5076864;28;20501;-81
2023/11/20 05:11:37;;;;;;;2.83;1.83;;;;;;;8.14;99.83;97927.34;5082856;28;20545;-81
2023/11/20 05:14:03;;;;;;;2.70;1.60;;;;;;;8.20;100.00;97936.97;5049578;28;20414;-80
2023/11/20 05:16:28;;;;;;;3.33;2.25;;;;;;;8.17;99.63;97932.16;5080624;28;20399;-80
2023/11/20 05:18:55;;;;;;;2.75;1.38;;;;;;;8.24;99.32;97935.38;5055159;28;20218;-80
2023/11/20 05:21:20;;;;;;;1.20;1.10;;;;;;;8.24;99.75;97935.38;5078060;28;20064;-80
2023/11/20 05:23:46;;;;;;;5.95;1.50;;;;;;;8.17;100.00;97932.94;5080608;28;20242;-81
2023/11/20 05:26:11;;;;;;;1.40;1.10;;;;;;;8.21;100.00;97943.91;5050102;28;20087;-81
2023/11/20 05:28:36;;;;;;;1.33;1.10;;;;;;;8.25;99.37;97942.31;5081810;28;20024;-81
2023/11/20 05:31:02;;;;;;;3.17;1.20;;;;;;;8.24;99.40;97935.38;5079322;28;20032;-81
2023/11/20 05:33:27;;;;;;;1.33;0.98;;;;;;;8.24;99.85;97928.22;5082121;28;20020;-81
2023/11/20 05:35:53;;;;;;;1.20;1.10;;;;;;;8.29;99.50;97932.81;5079291;28;20033;-81
2023/11/20 05:38:18;;;;;;;8.27;2.08;;;;;;;8.19;99.45;97919.44;5074068;28;20581;-81
2023/11/20 05:40:44;;;;;;;1.73;0.98;;;;;;;8.16;99.37;97923.41;5078859;28;20427;-81
2023/11/20 05:43:09;;;;;;;2.60;1.05;;;;;;;8.23;99.29;97937.25;5078405;28;20031;-81
2023/11/20 05:45:35;;;;;;;1.38;1.25;;;;;;;8.28;99.13;97932.00;5081692;28;20032;-82
2023/11/20 05:48:00;;;;;;;3.28;1.40;;;;;;;8.27;99.21;97927.75;5068904;28;20065;-81
2023/11/20 05:50:25;;;;;;;1.40;1.10;;;;;;;8.25;99.31;97939.66;5080517;28;20040;-81
2023/11/20 05:52:52;;;;;;;2.05;0.98;;;;;;;8.23;99.89;97939.13;5073091;28;20026;-81
2023/11/20 05:55:17;;;;;;;1.67;1.10;;;;;;;8.19;99.32;97938.03;5092800;28;20099;-81
2023/11/20 05:57:42;;;;;;;1.10;0.85;;;;;;;8.19;99.83;97935.38;5088261;28;20119;-82
2023/11/20 06:00:10;;;;;;;2.75;1.00;;;;;;;8.18;99.46;97933.75;5068956;28;20024;-81
2023/11/20 06:02:36;;;;;;;5.93;1.27;;;;;;;8.07;100.00;97935.56;5080063;28;20521;-81
2023/11/20 06:05:03;;;;;;;3.13;1.10;;;;;;;8.16;99.78;97952.63;5068697;28;20085;-81
2023/11/20 06:07:28;;;;;;;2.05;1.02;;;;;;;8.21;99.39;97954.53;5077535;28;20537;-82
2023/11/20 06:09:53;;;;;;;2.15;1.35;;;;;;;8.20;99.34;97952.91;5073287;28;20118;-82
2023/11/20 06:12:19;;;;;;;3.45;1.10;;;;;;;8.18;99.27;97947.84;5086642;28;20024;-82
2023/11/20 06:14:44;;;;;;;2.92;1.30;;;;;;;8.18;99.76;97957.69;5068545;28;20494;-81
2023/11/20 06:17:09;;;;;;;3.45;1.30;;;;;;;8.15;99.76;97956.34;5080742;28;20101;-82
2023/11/20 06:19:35;;;;;;;3.63;1.25;;;;;;;8.16;99.69;97955.28;5066542;28;20040;-82
2023/11/20 06:22:00;;;;;;;3.75;1.40;;;;;;;8.07;99.28;97948.84;5087222;28;20046;-82
2023/11/20 06:24:26;;;;;;;1.35;1.00;;;;;;;8.10;99.66;97960.81;5057295;28;20032;-82
2023/11/20 06:26:51;;;;;;;2.10;1.38;;;;;;;8.09;99.31;97961.84;5076288;28;20031;-82
2023/11/20 06:29:16;;;;;;;4.22;1.70;;;;;;;8.15;99.19;97955.53;5090729;28;20028;-81
2023/11/20 06:31:42;;;;;;;3.50;1.58;;;;;;;8.13;99.18;97958.44;5072476;28;20099;-81
2023/11/20 06:34:08;;;;;;;2.65;1.52;;;;;;;8.15;98.73;97955.53;5086121;28;20047;-82
2023/11/20 06:36:49;;;;;;;3.53;1.40;;;;;;;8.17;98.89;97975.47;5090836;28;20504;-84
2023/11/20 06:39:15;;;;;;;2.80;1.58;;;;;;;8.08;99.34;97962.94;5075024;28;20032;-81
2023/11/20 06:41:42;;;;;;;4.30;1.38;;;;;;;8.15;99.24;97974.13;5082080;28;20031;-82
2023/11/20 06:44:07;;;;;;;1.38;1.27;;;;;;;8.14;99.03;97962.72;5085415;28;20060;-82
2023/11/20 06:46:33;;;;;;;3.22;1.83;;;;;;;8.17;98.37;97961.38;5067465;28;20135;-82
2023/11/20 06:48:58;;;;;;;5.18;2.30;;;;;;;8.12;99.08;97972.81;5072992;28;20035;-82
2023/11/20 06:51:25;;;;;;;1.55;1.45;;;;;;;8.03;98.89;97965.53;5066053;28;20127;-81
2023/11/20 06:53:51;;;;;;;2.05;1.85;;;;;;;8.01;99.20;97968.47;5069313;28;20044;-81
2023/11/20 06:56:20;;;;;;;3.40;1.70;;;;;;;8.00;98.64;97968.69;5086175;28;20036;-81
2023/11/20 06:58:46;;;;;;;5.40;2.45;;;;;;;8.09;98.96;97975.16;5087127;28;20032;-82
2023/11/20 07:01:12;;;;;;;7.30;2.63;;;;;;;8.08;98.25;97984.97;5080408;28;20098;-82
2023/11/20 07:03:39;;;;;;;8.05;2.92;;;;;;;7.99;98.03;97972.41;5076569;28;20030;-82
2023/11/20 07:06:05;;;;;;;5.53;2.80;;;;;;;8.01;98.96;97986.25;5089468;28;20019;-82
2023/11/20 07:08:31;;;;;;;5.57;2.35;;;;;;;8.03;98.79;97981.47;5086728;28;20666;-82
2023/11/20 07:10:59;;;;;;;2.30;2.10;;;;;;;8.00;98.38;97981.97;5082038;28;20074;-82
2023/11/20 07:13:24;;;;;;;7.53;2.80;;;;;;;8.03;98.26;97992.91;5086353;28;20026;-81
2023/11/20 07:15:49;;;;;;;4.30;2.50;;;;;;;8.03;98.19;97986.81;5089917;28;20127;-81
2023/11/20 07:18:15;;;;;;;4.70;2.67;;;;;;;8.05;97.98;97988.16;5074034;28;20496;-81
2023/11/20 07:20:42;;;;;;;4.55;3.05;;;;;;;8.09;98.14;97993.75;5065814;28;20028;-82
2023/11/20 07:23:08;;;;;;;8.18;2.75;;;;;;;8.01;98.10;97988.91;5086799;28;20024;-82
2023/11/20 07:25:34;;;;;;;9.88;2.42;;;;;;;8.12;98.33;97999.38;5089342;28;20028;-82
2023/11/20 07:28:04;;;;;;;7.53;2.42;;;;;;;8.07;97.58;98009.97;5093011;28;20057;-81
2023/11/20 07:30:30;;;;;;;5.30;2.90;;;;;;;8.15;97.75;98003.38;5072639;28;20029;-81
2023/11/20 07:32:55;;;;;;;5.82;2.47;;;;;;;8.12;97.60;98006.53;5082660;28;20110;-82
2023/11/20 07:35:21;;;;;;;6.05;2.17;;;;;;;8.20;97.42;98014.03;5078420;28;20123;-82
2023/11/20 07:37:46;;;;;;;6.40;2.55;;;;;;;8.12;97.61;98014.53;5067452;28;20036;-82
2023/11/20 07:40:12;;;;;;;4.35;2.20;;;;;;;8.12;97.33;98003.88;5087327;28;20107;-82
2023/11/20 07:42:39;;;;;;;7.28;2.85;;;;;;;8.15;98.01;98022.78;5085612;28;20442;-82
2023/11/20 07:45:05;;;;;;;2.92;2.42;;;;;;;8.18;98.11;98027.59;5073442;28;20066;-82
2023/11/20 07:47:30;;;;;;;3.65;2.40;;;;;;;8.18;97.53;98022.28;5092249;28;20392;-82
2023/11/20 07:49:56;;;;;;;8.25;2.67;;;;;;;8.18;97.53;98032.09;5075138;28;20039;-81
2023/11/20 07:52:22;;;;;;;2.80;2.28;;;;;;;8.24;97.02;98037.22;5089279;28;20028;-82
2023/11/20 07:54:47;;;;;;;4.65;2.30;;;;;;;8.12;98.07;98017.97;5080218;28;20056;-81
2023/11/20 07:57:15;;;;;;;3.88;2.33;;;;;;;8.25;97.76;98030.88;5082838;28;20495;-81
2023/11/20 07:59:41;;;;;;;7.93;2.83;;;;;;;8.25;97.72;98035.38;5081462;28;20032;-81
2023/11/20 08:02:07;;;;;;;3.60;2.33;;;;;;;8.21;97.08;98028.94;5078833;28;20043;-81
2023/11/20 08:04:33;;;;;;;2.50;2.13;;;;;;;8.19;97.51;98029.19;5081346;28;20391;-81
2023/11/20 08:06:58;;;;;;;4.57;2.70;;;;;;;8.26;97.22;98042.28;5090009;28;20036;-81
2023/11/20 08:09:23;;;;;;;7.85;2.40;;;;;;;8.26;96.99;98032.47;5085750;28;20509;-81
2023/11/20 08:11:49;;;;;;;4.85;2.70;;;;;;;8.22;96.63;98038.50;5068383;28;20032;-81
2023/11/20 08:14:15;;;;;;;6.68;2.53;;;;;;;8.28;96.65;98034.88;5083023;28;20103;-82
2023/11/20 08:16:41;;;;;;;6.30;2.38;;;;;;;8.34;97.21;98033.88;5081578;28;20509;-81
2023/11/20 08:19:14;;;;;;;12.88;3.10;;;;;;;8.32;96.59;98033.34;5115802;27;20766;-78
2023/11/20 08:21:40;;;;;;;4.78;2.63;;;;;;;8.43;96.45;98045.63;5111373;28;20076;-79
2023/11/20 08:24:07;;;;;;;2.70;2.50;;;;;;;8.43;95.80;98044.84;5116757;28;20441;-79
2023/11/20 08:26:33;;;;;;;4.72;2.22;;;;;;;8.47;95.69;98046.75;5119283;28;20028;-78
2023/11/20 08:29:01;;;;;;;5.18;3.10;;;;;;;8.35;96.22;98027.50;5117669;28;20073;-78
2023/11/20 08:31:27;;;;;;;5.70;2.33;;;;;;;8.40;96.53;98043.50;5118957;28;20024;-80
2023/11/20 08:33:52;;;;;;;5.22;2.60;;;;;;;8.44;95.83;98039.25;5124568;28;20034;-79
2023/11/20 08:36:17;;;;;;;6.47;2.45;;;;;;;8.37;96.13;98037.88;5124860;28;20031;-81
2023/11/20 08:38:43;;;;;;;5.85;2.53;;;;;;;8.41;96.22;98034.44;5128008;28;20023;-81
2023/11/20 08:41:08;;;;;;;4.93;2.20;;;;;;;8.32;95.73;98016.56;5125383;28;20055;-80
2023/11/20 08:43:34;;;;;;;4.85;2.42;;;;;;;8.52;95.59;98046.00;5125346;28;20030;-81
2023/11/20 08:46:00;;;;;;;4.18;3.70;;;;;;;8.41;95.35;98010.50;5122258;28;20024;-82
2023/11/20 08:48:25;;;;;;;7.68;2.75;;;;;;;8.62;94.80;98038.88;5124757;27;20032;-80
2023/11/20 08:50:50;;;;;;;4.78;2.80;;;;;;;8.49;94.51;98034.00;5124275;28;20038;-80
2023/11/20 08:53:16;;;;;;;5.18;2.75;;;;;;;8.56;94.09;98036.44;5127033;28;20491;-79
2023/11/20 08:55:41;;;;;;;7.25;3.05;;;;;;;8.48;93.99;98015.63;5121631;28;20043;-80
2023/11/20 08:58:08;;;;;;;11.35;3.10;;;;;;;8.55;94.67;98035.63;5124899;28;20020;-79
2023/11/20 09:00:36;;;;;;;8.27;3.03;;;;;;;8.58;94.98;98029.81;5120304;28;20032;-81
2023/11/20 09:03:02;;;;;;;7.75;2.95;;;;;;;8.57;94.81;98033.50;5122127;28;20035;-79
2023/11/20 09:05:27;;;;;;;6.28;2.80;;;;;;;8.64;94.15;98044.75;5120291;28;20570;-80
2023/11/20 09:07:54;;;;;;;4.10;2.95;;;;;;;8.64;94.47;98036.75;5124929;28;20047;-81
2023/11/20 09:10:22;;;;;;;6.05;3.10;;;;;;;8.65;94.73;98046.31;5126751;28;20027;-80
2023/11/20 09:12:48;;;;;;;4.15;2.80;;;;;;;8.62;94.81;98030.09;5124887;28;20019;-81
2023/11/20 09:15:14;;;;;;;5.90;2.08;;;;;;;8.70;94.19;98034.94;5114456;28;20369;-81
2023/11/20 09:17:39;;;;;;;6.95;3.35;;;;;;;8.68;94.83;98051.16;5122206;28;20045;-81
2023/11/20 09:20:05;;;;;;;7.05;2.80;;;;;;;8.63;94.09;98045.78;5124308;28;20641;-81
2023/11/20 09:22:31;;;;;;;3.10;2.47;;;;;;;8.70;94.20;98053.53;5123112;28;20004;-80
2023/11/20 09:24:56;;;;;;;9.05;2.97;;;;;;;8.66;94.63;98055.13;5115300;28;20373;-80
2023/11/20 09:27:22;;;;;;;6.40;2.65;;;;;;;8.52;94.09;98041.44;5123505;28;20045;-80
2023/11/20 09:29:47;;;;;;;4.30;2.40;;;;;;;8.68;94.43;98077.75;5114335;28;20032;-80
2023/11/20 09:32:13;;;;;;;9.02;2.78;;;;;;;8.65;94.29;98075.59;5109329;28;20031;-80
2023/11/20 09:34:38;;;;;;;5.40;2.90;;;;;;;8.60;94.39;98066.78;5109193;28;20062;-80
2023/11/20 09:37:04;;;;;;;4.57;2.50;;;;;;;8.61;94.73;98063.84;5109032;28;20103;-80
2023/11/20 09:39:29;;;;;;;8.63;3.22;;;;;;;8.56;95.11;98065.69;5105590;28;20187;-80
2023/11/20 09:41:55;;;;;;;5.97;2.88;;;;;;;8.61;95.31;98061.19;5104984;28;20023;-80
2023/11/20 09:44:31;;;;;;;5.30;3.28;;;;;;;8.68;94.87;98058.31;5109249;28;20024;-80
2023/11/20 09:46:58;;;;;;;7.10;3.08;;;;;;;8.74;94.60;98065.28;5103314;28;20472;-78
2023/11/20 09:49:29;;;;;;;2.70;2.20;;;;;;;8.70;94.88;98072.16;5098427;28;20060;-79
2023/11/20 09:51:56;;;;;;;4.65;2.53;;;;;;;8.72;94.83;98062.06;5100748;28;20034;-79
2023/11/20 09:54:24;;;;;;;3.42;2.40;;;;;;;8.69;95.29;98065.25;5077458;28;20029;-79
2023/11/20 09:56:50;;;;;;;8.65;2.63;;;;;;;8.74;95.03;98068.75;5109583;28;20028;-79
2023/11/20 09:59:16;;;;;;;4.05;2.60;;;;;;;8.69;95.54;98067.91;5102214;28;20040;-79
2023/11/20 10:01:44;;;;;;;3.85;2.22;;;;;;;8.65;95.71;98053.53;5109100;28;20034;-80
2023/11/20 10:04:15;;;;;;;6.50;2.47;;;;;;;8.81;95.44;98073.84;5104791;28;20032;-80
2023/11/20 10:06:42;;;;;;;3.83;1.95;;;;;;;8.66;95.68;98057.78;5106964;28;20042;-80
2023/11/20 10:09:07;;;;;;;4.25;2.30;;;;;;;8.75;96.28;98069.56;5101566;28;20028;-79
2023/11/20 10:11:36;;;;;;;2.80;2.40;;;;;;;8.83;96.26;98063.75;5107560;28;20488;-79
2023/11/20 10:14:01;;;;;;;7.25;2.35;;;;;;;8.87;96.21;98059.50;5108838;28;20031;-80
2023/11/20 10:16:30;;;;;;;4.75;2.60;;;;;;;8.80;96.74;98050.97;5109877;28;20126;-80
2023/11/20 10:18:56;;;;;;;5.68;2.45;;;;;;;8.83;96.32;98056.56;5100511;28;20050;-79
2023/11/20 10:21:21;;;;;;;2.42;2.00;;;;;;;8.71;95.90;98034.69;5109029;28;20028;-80
2023/11/20 10:23:52;;;;;;;4.57;2.67;;;;;;;8.80;96.28;98062.41;5105349;28;20600;-79
2023/11/20 10:26:17;;;;;;;5.88;2.55;;;;;;;8.81;96.39;98060.53;5105885;28;20035;-79
2023/11/20 10:28:45;;;;;;;4.57;2.72;;;;;;;8.85;95.88;98056.31;5101693;28;20130;-81
2023/11/20 10:31:10;;;;;;;3.97;2.83;;;;;;;8.79;95.32;98030.72;5109204;28;20111;-79
2023/11/20 10:33:36;;;;;;;5.70;2.33;;;;;;;8.84;95.88;98046.75;5109402;28;20043;-78
2023/11/20 10:36:12;;;;;;;4.47;2.30;;;;;;;8.96;95.57;98034.84;5101176;28;20131;-80
2023/11/20 10:38:38;;;;;;;4.22;2.58;;;;;;;8.84;94.75;98028.09;5104669;28;20098;-79
2023/11/20 10:41:08;;;;;;;6.10;2.70;;;;;;;8.96;94.86;98034.84;5105646;28;20047;-79
2023/11/20 10:43:36;;;;;;;4.18;2.97;;;;;;;8.95;94.55;98033.22;5113006;28;20020;-78
2023/11/20 10:46:01;;;;;;;6.68;2.33;;;;;;;8.90;94.82;98046.50;5108869;28;20024;-80
2023/11/20 10:48:39;;;;;;;7.45;2.63;;;;;;;8.74;94.62;98014.72;5108920;28;20024;-80
2023/11/20 10:51:08;;;;;;;7.10;3.10;;;;;;;8.87;94.23;98028.38;5101151;28;20054;-80
2023/11/20 10:53:42;;;;;;;4.95;2.75;;;;;;;8.67;94.61;98019.50;5111205;28;20023;-80
2023/11/20 10:56:09;;;;;;;8.82;3.65;;;;;;;8.75;94.19;98030.47;5109757;28;20027;-79
2023/11/20 10:58:34;;;;;;;7.40;3.42;;;;;;;8.80;94.48;98033.13;5109477;28;20022;-80
2023/11/20 11:01:01;;;;;;;11.23;3.35;;;;;;;8.93;94.20;98031.91;5108554;28;20028;-80
2023/11/20 11:03:28;;;;;;;12.00;5.30;;;;;;;8.93;93.64;98023.91;5109451;28;20030;-81
2023/11/20 11:05:54;;;;;;;9.48;3.17;;;;;;;8.98;93.62;98029.25;5103016;28;20020;-81
2023/11/20 11:08:20;;;;;;;8.95;3.65;;;;;;;8.94;93.30;98025.50;5105226;28;20047;-81
2023/11/20 11:10:48;;;;;;;16.65;4.60;;;;;;;9.03;92.83;98024.75;5106773;28;20377;-80
2023/11/20 11:13:18;;;;;;;13.85;4.07;;;;;;;8.97;92.67;98023.16;5109067;28;20103;-80
2023/11/20 11:15:46;;;;;;;6.57;3.40;;;;;;;9.00;92.97;98027.13;5111281;28;20103;-81
2023/11/20 11:18:14;;;;;;;10.63;3.55;;;;;;;8.99;92.91;98009.56;5103189;28;20034;-81
2023/11/20 11:20:47;;;;;;;15.13;3.60;;;;;;;8.96;92.84;98013.53;5101317;28;20047;-80
2023/11/20 11:23:16;;;;;;;12.60;4.45;;;;;;;8.85;92.17;97997.78;5104282;28;20024;-80
2023/11/20 11:26:26;;;;;;;13.43;4.68;;;;;;;8.98;90.72;98014.09;5108184;28;20561;-80
2023/11/20 11:29:02;;;;;;;7.60;3.35;;;;;;;8.89;91.51;98004.97;5100213;28;20035;-79
2023/11/20 11:31:39;;;;;;;10.20;3.78;;;;;;;9.00;90.93;98011.97;5110056;28;20027;-79
2023/11/20 11:34:24;;;;;;;9.73;4.32;;;;;;;9.03;90.48;98021.28;5104484;28;20047;-80
2023/11/20 11:37:23;;;;;;;7.93;3.08;;;;;;;9.06;89.84;98020.78;5107685;28;20031;-80